sensor_id;sensor_type;location;lat;lon;timestamp;temperature;humidity
12460;DHT22;6295;49.452;8.466;2023-05-14T03:14:35;12.80;99.90
12460;DHT22;6295;49.452;8.466;2023-05-14T03:22:39;12.70;99.90
12460;DHT22;6295;49.452;8.466;2023-05-14T03:26:41;12.60;99.90
12460;DHT22;6295;49.452;8.466;2023-05-14T03:30:45;12.60;99.90
12460;DHT22;6295;49.452;8.466;2023-05-14T03:34:47;12.50;99.90
12460;DHT22;6295;49.452;8.466;2023-05-14T03:38:49;12.50;99.90
12460;DHT22;6295;49.452;8.466;2023-05-14T03:42:51;12.40;99.90
12460;DHT22;6295;49.452;8.466;2023-05-14T03:46:54;12.40;99.90
12460;DHT22;6295;49.452;8.466;2023-05-14T03:50:56;12.40;99.90
12460;DHT22;6295;49.452;8.466;2023-05-14T03:54:59;12.30;99.90
12460;DHT22;6295;49.452;8.466;2023-05-14T03:59:00;12.20;99.90
12460;DHT22;6295;49.452;8.466;2023-05-14T04:03:04;12.20;99.90
12460;DHT22;6295;49.452;8.466;2023-05-14T04:11:09;12.00;99.90
12460;DHT22;6295;49.452;8.466;2023-05-14T04:19:15;11.90;99.90
12460;DHT22;6295;49.452;8.466;2023-05-14T04:23:17;11.90;99.90
12460;DHT22;6295;49.452;8.466;2023-05-14T04:27:19;11.90;99.90
12460;DHT22;6295;49.452;8.466;2023-05-14T04:35:25;11.90;99.90
12460;DHT22;6295;49.452;8.466;2023-05-14T04:39:27;11.90;99.90
12460;DHT22;6295;49.452;8.466;2023-05-14T04:43:29;11.90;99.90
12460;DHT22;6295;49.452;8.466;2023-05-14T04:47:31;12.00;99.90
12460;DHT22;6295;49.452;8.466;2023-05-14T04:51:35;12.00;99.90
12460;DHT22;6295;49.452;8.466;2023-05-14T04:59:39;12.20;99.90
12460;DHT22;6295;49.452;8.466;2023-05-14T05:03:45;12.20;99.90
12460;DHT22;6295;49.452;8.466;2023-05-14T05:07:52;12.40;99.90
12460;DHT22;6295;49.452;8.466;2023-05-14T05:11:56;12.40;99.90
12460;DHT22;6295;49.452;8.466;2023-05-14T05:24:06;12.50;99.90
12460;DHT22;6295;49.452;8.466;2023-05-14T05:28:08;12.50;99.90
12460;DHT22;6295;49.452;8.466;2023-05-14T05:32:10;12.50;99.90
12460;DHT22;6295;49.452;8.466;2023-05-14T05:36:12;12.60;99.90
12460;DHT22;6295;49.452;8.466;2023-05-14T05:44:18;12.70;99.90
12460;DHT22;6295;49.452;8.466;2023-05-14T05:48:20;12.70;99.90
12460;DHT22;6295;49.452;8.466;2023-05-14T05:52:22;12.80;99.90
12460;DHT22;6295;49.452;8.466;2023-05-14T05:56:26;12.80;99.90
12460;DHT22;6295;49.452;8.466;2023-05-14T06:00:28;12.80;99.90
12460;DHT22;6295;49.452;8.466;2023-05-14T06:04:30;12.80;99.90
12460;DHT22;6295;49.452;8.466;2023-05-14T06:08:32;12.80;99.90
12460;DHT22;6295;49.452;8.466;2023-05-14T06:12:36;12.90;99.90
12460;DHT22;6295;49.452;8.466;2023-05-14T06:16:38;12.90;99.90
12460;DHT22;6295;49.452;8.466;2023-05-14T06:20:43;12.90;99.90
12460;DHT22;6295;49.452;8.466;2023-05-14T06:24:47;13.00;99.90
12460;DHT22;6295;49.452;8.466;2023-05-14T06:28:50;13.00;99.90
12460;DHT22;6295;49.452;8.466;2023-05-14T06:32:52;13.10;99.90
12460;DHT22;6295;49.452;8.466;2023-05-14T06:36:54;13.20;99.90
12460;DHT22;6295;49.452;8.466;2023-05-14T06:45:00;13.30;99.90
12460;DHT22;6295;49.452;8.466;2023-05-14T06:49:02;13.30;99.90
12460;DHT22;6295;49.452;8.466;2023-05-14T06:53:04;13.40;99.90
12460;DHT22;6295;49.452;8.466;2023-05-14T06:57:06;13.50;99.90
12460;DHT22;6295;49.452;8.466;2023-05-14T07:05:12;13.70;99.90
12460;DHT22;6295;49.452;8.466;2023-05-14T07:09:15;13.70;99.90
12460;DHT22;6295;49.452;8.466;2023-05-14T07:13:17;13.90;99.90
12460;DHT22;6295;49.452;8.466;2023-05-14T07:17:20;14.00;99.90
12460;DHT22;6295;49.452;8.466;2023-05-14T07:21:22;14.10;99.90
12460;DHT22;6295;49.452;8.466;2023-05-14T07:29:28;14.30;99.90
12460;DHT22;6295;49.452;8.466;2023-05-14T07:33:34;14.40;99.90
12460;DHT22;6295;49.452;8.466;2023-05-14T07:41:40;14.60;99.90
12460;DHT22;6295;49.452;8.466;2023-05-14T07:45:42;14.80;99.90
12460;DHT22;6295;49.452;8.466;2023-05-14T07:49:45;14.80;99.90
12460;DHT22;6295;49.452;8.466;2023-05-14T07:53:47;14.90;99.90
12460;DHT22;6295;49.452;8.466;2023-05-14T07:57:49;15.00;99.90
12460;DHT22;6295;49.452;8.466;2023-05-14T08:01:51;15.20;99.90
12460;DHT22;6295;49.452;8.466;2023-05-14T08:05:55;15.30;99.90
12460;DHT22;6295;49.452;8.466;2023-05-14T08:09:59;15.40;99.90
12460;DHT22;6295;49.452;8.466;2023-05-14T08:18:07;15.50;99.90
12460;DHT22;6295;49.452;8.466;2023-05-14T08:22:10;15.50;99.90
12460;DHT22;6295;49.452;8.466;2023-05-14T08:26:12;15.60;99.90
12460;DHT22;6295;49.452;8.466;2023-05-14T08:30:14;15.70;99.90
12460;DHT22;6295;49.452;8.466;2023-05-14T08:34:17;15.80;99.90
12460;DHT22;6295;49.452;8.466;2023-05-14T08:38:21;15.80;99.90
12460;DHT22;6295;49.452;8.466;2023-05-14T08:42:23;15.90;99.90
12460;DHT22;6295;49.452;8.466;2023-05-14T08:50:31;16.00;99.90
12460;DHT22;6295;49.452;8.466;2023-05-14T08:54:34;16.00;99.90
12460;DHT22;6295;49.452;8.466;2023-05-14T08:58:36;16.10;99.90
12460;DHT22;6295;49.452;8.466;2023-05-14T09:02:39;16.10;99.90
12460;DHT22;6295;49.452;8.466;2023-05-14T09:06:42;16.20;99.90
12460;DHT22;6295;49.452;8.466;2023-05-14T09:10:46;16.20;99.90
12460;DHT22;6295;49.452;8.466;2023-05-14T09:14:49;16.20;99.90
12460;DHT22;6295;49.452;8.466;2023-05-14T09:18:51;16.20;99.90
12460;DHT22;6295;49.452;8.466;2023-05-14T09:22:53;16.40;99.90
12460;DHT22;6295;49.452;8.466;2023-05-14T09:26:58;16.40;99.90
12460;DHT22;6295;49.452;8.466;2023-05-14T09:31:01;16.50;99.90
12460;DHT22;6295;49.452;8.466;2023-05-14T09:39:16;16.50;99.90
12460;DHT22;6295;49.452;8.466;2023-05-14T09:43:20;16.50;99.90
12460;DHT22;6295;49.452;8.466;2023-05-14T09:47:23;16.60;99.90
12460;DHT22;6295;49.452;8.466;2023-05-14T09:51:25;16.60;99.90
12460;DHT22;6295;49.452;8.466;2023-05-14T10:15:56;16.90;99.90
12460;DHT22;6295;49.452;8.466;2023-05-14T10:20:01;17.00;99.90
12460;DHT22;6295;49.452;8.466;2023-05-14T10:24:06;17.10;99.90
12460;DHT22;6295;49.452;8.466;2023-05-14T10:28:09;17.10;99.90
12460;DHT22;6295;49.452;8.466;2023-05-14T10:32:13;17.20;99.90
12460;DHT22;6295;49.452;8.466;2023-05-14T10:36:16;17.20;99.90
12460;DHT22;6295;49.452;8.466;2023-05-14T10:40:19;17.30;99.90
12460;DHT22;6295;49.452;8.466;2023-05-14T10:52:30;17.20;99.90
12460;DHT22;6295;49.452;8.466;2023-05-14T10:56:32;17.20;99.90
12460;DHT22;6295;49.452;8.466;2023-05-14T11:00:34;17.10;99.90
12460;DHT22;6295;49.452;8.466;2023-05-14T11:04:40;17.10;99.90
12460;DHT22;6295;49.452;8.466;2023-05-14T11:08:42;17.10;99.90
12460;DHT22;6295;49.452;8.466;2023-05-14T11:12:47;17.00;99.90
12460;DHT22;6295;49.452;8.466;2023-05-14T11:16:50;17.00;99.90
12460;DHT22;6295;49.452;8.466;2023-05-14T11:20:57;16.90;99.90
12460;DHT22;6295;49.452;8.466;2023-05-14T11:24:59;16.90;99.90
12460;DHT22;6295;49.452;8.466;2023-05-14T11:33:04;16.90;99.90
12460;DHT22;6295;49.452;8.466;2023-05-14T11:41:13;16.90;99.90
12460;DHT22;6295;49.452;8.466;2023-05-14T11:45:23;17.00;99.90
12460;DHT22;6295;49.452;8.466;2023-05-14T11:49:27;17.10;99.90
12460;DHT22;6295;49.452;8.466;2023-05-14T11:53:31;17.20;99.90
12460;DHT22;6295;49.452;8.466;2023-05-14T12:01:36;17.40;99.90
12460;DHT22;6295;49.452;8.466;2023-05-14T12:09:43;17.50;99.90
12460;DHT22;6295;49.452;8.466;2023-05-14T12:13:48;17.60;99.90
12460;DHT22;6295;49.452;8.466;2023-05-14T12:21:53;17.90;99.90
12460;DHT22;6295;49.452;8.466;2023-05-14T12:26:00;18.10;99.90
12460;DHT22;6295;49.452;8.466;2023-05-14T12:30:04;18.40;99.90
12460;DHT22;6295;49.452;8.466;2023-05-14T12:34:07;18.40;99.90
12460;DHT22;6295;49.452;8.466;2023-05-14T12:38:10;18.50;99.90
12460;DHT22;6295;49.452;8.466;2023-05-14T12:42:15;18.60;99.90
12460;DHT22;6295;49.452;8.466;2023-05-14T12:46:17;18.80;99.90
12460;DHT22;6295;49.452;8.466;2023-05-14T12:50:19;19.00;99.90
12460;DHT22;6295;49.452;8.466;2023-05-14T12:54:21;19.10;99.90
12460;DHT22;6295;49.452;8.466;2023-05-14T13:02:27;19.50;99.90
12460;DHT22;6295;49.452;8.466;2023-05-14T13:10:32;19.70;99.90
12460;DHT22;6295;49.452;8.466;2023-05-14T13:14:36;19.70;99.90
12460;DHT22;6295;49.452;8.466;2023-05-14T13:18:38;19.70;99.90
12460;DHT22;6295;49.452;8.466;2023-05-14T13:22:40;19.50;99.90
12460;DHT22;6295;49.452;8.466;2023-05-14T13:26:42;19.40;99.90
12460;DHT22;6295;49.452;8.466;2023-05-14T13:31:04;19.60;99.90
12460;DHT22;6295;49.452;8.466;2023-05-14T13:35:07;19.60;99.90
12460;DHT22;6295;49.452;8.466;2023-05-14T13:39:09;19.60;99.90
12460;DHT22;6295;49.452;8.466;2023-05-14T13:43:12;19.50;99.90
12460;DHT22;6295;49.452;8.466;2023-05-14T13:51:21;19.40;99.90
12460;DHT22;6295;49.452;8.466;2023-05-14T13:59:25;19.60;99.90
12460;DHT22;6295;49.452;8.466;2023-05-14T14:07:31;20.00;99.90
12460;DHT22;6295;49.452;8.466;2023-05-14T14:23:42;20.20;99.90
12460;DHT22;6295;49.452;8.466;2023-05-14T14:27:45;20.10;99.90
12460;DHT22;6295;49.452;8.466;2023-05-14T14:31:48;20.10;99.90
12460;DHT22;6295;49.452;8.466;2023-05-14T14:39:54;20.70;99.90
12460;DHT22;6295;49.452;8.466;2023-05-14T14:43:56;20.80;99.90
12460;DHT22;6295;49.452;8.466;2023-05-14T14:48:26;21.00;99.90
12460;DHT22;6295;49.452;8.466;2023-05-14T14:52:29;21.10;99.90
12460;DHT22;6295;49.452;8.466;2023-05-14T15:00:36;21.20;99.90
12460;DHT22;6295;49.452;8.466;2023-05-14T15:04:39;21.00;99.90
12460;DHT22;6295;49.452;8.466;2023-05-14T15:08:43;20.70;99.90
12460;DHT22;6295;49.452;8.466;2023-05-14T15:12:45;20.60;99.90
12460;DHT22;6295;49.452;8.466;2023-05-14T15:24:54;21.00;99.90
12460;DHT22;6295;49.452;8.466;2023-05-14T15:28:56;21.00;99.90
12460;DHT22;6295;49.452;8.466;2023-05-14T15:37:01;21.30;99.90
12460;DHT22;6295;49.452;8.466;2023-05-14T15:41:04;21.40;99.90
12460;DHT22;6295;49.452;8.466;2023-05-14T15:57:17;21.50;99.90
12460;DHT22;6295;49.452;8.466;2023-05-14T16:01:19;21.60;99.90
12460;DHT22;6295;49.452;8.466;2023-05-14T16:09:24;21.60;99.90
12460;DHT22;6295;49.452;8.466;2023-05-14T16:13:27;21.50;99.90
12460;DHT22;6295;49.452;8.466;2023-05-14T16:17:29;21.40;99.90
12460;DHT22;6295;49.452;8.466;2023-05-14T16:21:32;21.10;99.90
12460;DHT22;6295;49.452;8.466;2023-05-14T16:25:34;21.00;99.90
12460;DHT22;6295;49.452;8.466;2023-05-14T16:29:38;20.80;99.90
12460;DHT22;6295;49.452;8.466;2023-05-14T16:37:45;20.80;99.90
12460;DHT22;6295;49.452;8.466;2023-05-14T16:41:47;20.80;99.90
12460;DHT22;6295;49.452;8.466;2023-05-14T16:45:51;20.70;99.90
12460;DHT22;6295;49.452;8.466;2023-05-14T16:53:56;20.60;99.90
12460;DHT22;6295;49.452;8.466;2023-05-14T16:58:00;20.60;99.90
12460;DHT22;6295;49.452;8.466;2023-05-14T17:10:10;20.60;99.90
12460;DHT22;6295;49.452;8.466;2023-05-14T17:14:12;20.70;99.90
12460;DHT22;6295;49.452;8.466;2023-05-14T17:18:16;20.70;99.90
12460;DHT22;6295;49.452;8.466;2023-05-14T17:22:18;20.70;99.90
12460;DHT22;6295;49.452;8.466;2023-05-14T17:30:26;20.80;99.90
12460;DHT22;6295;49.452;8.466;2023-05-14T17:34:29;20.80;99.90
12460;DHT22;6295;49.452;8.466;2023-05-14T17:38:32;20.80;99.90
12460;DHT22;6295;49.452;8.466;2023-05-14T17:42:34;20.70;99.90
12460;DHT22;6295;49.452;8.466;2023-05-14T17:46:36;20.60;99.90
12460;DHT22;6295;49.452;8.466;2023-05-14T17:54:42;20.40;99.90
12460;DHT22;6295;49.452;8.466;2023-05-14T17:58:47;20.40;99.90
12460;DHT22;6295;49.452;8.466;2023-05-14T18:02:51;20.30;99.90
12460;DHT22;6295;49.452;8.466;2023-05-14T18:06:55;20.10;99.90
12460;DHT22;6295;49.452;8.466;2023-05-14T18:10:57;20.00;99.90
12460;DHT22;6295;49.452;8.466;2023-05-14T18:19:02;19.60;99.90
12460;DHT22;6295;49.452;8.466;2023-05-14T18:23:06;19.50;99.90
12460;DHT22;6295;49.452;8.466;2023-05-14T18:27:08;19.30;99.90
12460;DHT22;6295;49.452;8.466;2023-05-14T18:31:11;19.20;99.90
12460;DHT22;6295;49.452;8.466;2023-05-14T18:35:14;19.00;99.90
12460;DHT22;6295;49.452;8.466;2023-05-14T18:39:17;18.80;99.90
12460;DHT22;6295;49.452;8.466;2023-05-14T18:43:20;18.60;99.90
12460;DHT22;6295;49.452;8.466;2023-05-14T18:47:22;18.50;99.90
12460;DHT22;6295;49.452;8.466;2023-05-14T18:51:24;18.30;99.90
12460;DHT22;6295;49.452;8.466;2023-05-14T18:55:27;18.30;99.90
